Etusivu
METAR-TAF:

METAR-TAF

Lentoasemat :

Phú Quốc, Vietnam

Leveyspiiri: 10-10-18N, Pituuspiiri: 103-59-28E, korkeus merenpinnasta: 11 m

Tämänhetkinen sää

Tämä raportti tehtiin 41 minuuttia sitten, kello 06.30 UTC
Tuuli 7 kn etelästä/lounaasta
Lämpötila 33°C
Kosteus 63%
Ilmanpaine 1010 hPa
Näkyvyys 10 km tai enemmän
Muutamia pilviä 1700 ft:n korkeudessa

METAR: VVPQ 260630Z 21007KT 9999 FEW017 33/25 Q1010 NOSIG

Aika: 14:11 (07:11 UTC)

Sääennuste

Tämä raportti tehtiin 2 tuntia ja 11 minuuttia sitten, kello 05.00 UTC
Ennuste voimassa 26. päivästä klo 06 UTC - 27. päivään klo 06 UTC
Tuuli 8 kn etelästä/lounaasta
Näkyvyys 10 km tai enemmän
Hajanaisia pilviä 1700 ft:n korkeudessa

TAF: VVPQ 260500Z 2606/2706 21008KT 9999 SCT017

Säähavainnot ja -ennusteet yli 4000 lentoasemalta (METAR- ja TAF-raportit).

Käytössä olevat sääasemat on merkitty karttaan keltaisilla ja punaisilla pisteillä.

Aseta hiiri pisteen päälle nähdäksesi sääaseman nimen.

Klikkaa sitten nähdäksesi säähavainnot ja -ennusteet.

Kartan vaihtaminen: klikkaa mustalla rastilla varustettuja vihreitä pisteitä, niin voit zoomata sisään; viivalla varustettua vihreää pistettä, niin voit zoomata ulos tai vihreitä nuolia, niin pääset viereisille kartoille.


METAR-TAF: